sensor_id;sensor_type;location;lat;lon;timestamp;pressure;altitude;pressure_sealevel;temperature;humidity
49451;BME280;35336;48.400;10.886;2024-01-27T00:00:05;97863.25;;;2.29;85.55
49451;BME280;35336;48.400;10.886;2024-01-27T00:00:20;97854.41;;;2.30;85.78
49451;BME280;35336;48.400;10.886;2024-01-27T00:00:36;97850.19;;;2.28;85.93
49451;BME280;35336;48.400;10.886;2024-01-27T00:00:51;97856.28;;;2.28;86.17
49451;BME280;35336;48.400;10.886;2024-01-27T00:01:06;97852.72;;;2.29;86.45
49451;BME280;35336;48.400;10.886;2024-01-27T00:01:21;97854.63;;;2.27;86.62
49451;BME280;35336;48.400;10.886;2024-01-27T00:01:37;97845.88;;;2.27;86.86
49451;BME280;35336;48.400;10.886;2024-01-27T00:01:52;97850.19;;;2.28;87.38
49451;BME280;35336;48.400;10.886;2024-01-27T00:02:07;97857.97;;;2.29;87.88
49451;BME280;35336;48.400;10.886;2024-01-27T00:02:22;97854.41;;;2.30;88.06
49451;BME280;35336;48.400;10.886;2024-01-27T00:02:40;97838.22;;;2.24;87.87
49451;BME280;35336;48.400;10.886;2024-01-27T00:02:55;97855.03;;;2.34;88.07
49451;BME280;35336;48.400;10.886;2024-01-27T00:03:10;97845.75;;;2.28;87.75
49451;BME280;35336;48.400;10.886;2024-01-27T00:03:25;97850.00;;;2.31;87.55
49451;BME280;35336;48.400;10.886;2024-01-27T00:03:41;97850.00;;;2.31;87.69
49451;BME280;35336;48.400;10.886;2024-01-27T00:03:56;97845.56;;;2.31;87.38
49451;BME280;35336;48.400;10.886;2024-01-27T00:04:11;97839.88;;;2.25;87.42
49451;BME280;35336;48.400;10.886;2024-01-27T00:04:27;97848.19;;;2.31;87.67
49451;BME280;35336;48.400;10.886;2024-01-27T00:04:42;97844.72;;;2.31;87.36
49451;BME280;35336;48.400;10.886;2024-01-27T00:04:57;97848.06;;;2.33;87.78
49451;BME280;35336;48.400;10.886;2024-01-27T00:05:12;97827.06;;;2.20;87.47
49451;BME280;35336;48.400;10.886;2024-01-27T00:05:28;97842.81;;;2.33;87.88
49451;BME280;35336;48.400;10.886;2024-01-27T00:05:43;97841.88;;;2.34;87.93
49451;BME280;35336;48.400;10.886;2024-01-27T00:05:58;97823.44;;;2.21;87.63
49451;BME280;35336;48.400;10.886;2024-01-27T00:06:13;97840.41;;;2.30;87.53
49451;BME280;35336;48.400;10.886;2024-01-27T00:06:29;97841.75;;;2.35;87.80
49451;BME280;35336;48.400;10.886;2024-01-27T00:06:44;97846.94;;;2.37;88.23
49451;BME280;35336;48.400;10.886;2024-01-27T00:06:59;97829.88;;;2.30;88.17
49451;BME280;35336;48.400;10.886;2024-01-27T00:07:15;97843.56;;;2.35;88.10
49451;BME280;35336;48.400;10.886;2024-01-27T00:07:32;97835.84;;;2.32;87.51
49451;BME280;35336;48.400;10.886;2024-01-27T00:07:47;97842.94;;;2.31;87.58
49451;BME280;35336;48.400;10.886;2024-01-27T00:08:03;97836.09;;;2.29;87.38
49451;BME280;35336;48.400;10.886;2024-01-27T00:08:18;97837.78;;;2.30;87.54
49451;BME280;35336;48.400;10.886;2024-01-27T00:08:33;97826.94;;;2.21;87.76
49451;BME280;35336;48.400;10.886;2024-01-27T00:08:51;97839.66;;;2.28;87.64
49451;BME280;35336;48.400;10.886;2024-01-27T00:09:06;97812.72;;;2.11;87.52
49451;BME280;35336;48.400;10.886;2024-01-27T00:09:21;97814.66;;;2.09;87.60
49451;BME280;35336;48.400;10.886;2024-01-27T00:09:39;97833.03;;;2.22;87.63
49451;BME280;35336;48.400;10.886;2024-01-27T00:09:55;97835.66;;;2.22;87.59
49451;BME280;35336;48.400;10.886;2024-01-27T00:10:10;97836.53;;;2.22;87.84
49451;BME280;35336;48.400;10.886;2024-01-27T00:10:25;97840.84;;;2.24;88.16
49451;BME280;35336;48.400;10.886;2024-01-27T00:10:43;97826.50;;;2.15;88.20
49451;BME280;35336;48.400;10.886;2024-01-27T00:10:58;97837.22;;;2.25;87.65
49451;BME280;35336;48.400;10.886;2024-01-27T00:11:14;97834.59;;;2.25;88.01
49451;BME280;35336;48.400;10.886;2024-01-27T00:11:29;97841.78;;;2.22;87.91
49451;BME280;35336;48.400;10.886;2024-01-27T00:11:44;97831.25;;;2.22;87.91
49451;BME280;35336;48.400;10.886;2024-01-27T00:12:02;97830.72;;;2.17;87.45
49451;BME280;35336;48.400;10.886;2024-01-27T00:12:17;97836.72;;;2.19;87.18
49451;BME280;35336;48.400;10.886;2024-01-27T00:12:32;97832.72;;;2.14;87.18
49451;BME280;35336;48.400;10.886;2024-01-27T00:12:48;97842.22;;;2.16;87.54
49451;BME280;35336;48.400;10.886;2024-01-27T00:13:03;97840.41;;;2.17;87.70
49451;BME280;35336;48.400;10.886;2024-01-27T00:13:18;97839.59;;;2.16;87.91
49451;BME280;35336;48.400;10.886;2024-01-27T00:13:34;97808.84;;;2.04;87.89
49451;BME280;35336;48.400;10.886;2024-01-27T00:13:49;97837.59;;;2.20;88.36
49451;BME280;35336;48.400;10.886;2024-01-27T00:14:04;97840.28;;;2.18;88.02
49451;BME280;35336;48.400;10.886;2024-01-27T00:14:22;97833.59;;;2.14;87.74
49451;BME280;35336;48.400;10.886;2024-01-27T00:14:39;97841.47;;;2.14;87.75
49451;BME280;35336;48.400;10.886;2024-01-27T00:14:55;97828.00;;;2.06;87.79
49451;BME280;35336;48.400;10.886;2024-01-27T00:15:10;97817.78;;;2.01;87.56
49451;BME280;35336;48.400;10.886;2024-01-27T00:15:25;97837.34;;;2.10;87.63
49451;BME280;35336;48.400;10.886;2024-01-27T00:15:41;97835.69;;;2.09;87.71
49451;BME280;35336;48.400;10.886;2024-01-27T00:15:56;97809.59;;;1.93;88.20
49451;BME280;35336;48.400;10.886;2024-01-27T00:16:11;97838.34;;;2.09;88.10
49451;BME280;35336;48.400;10.886;2024-01-27T00:16:27;97836.63;;;2.08;87.66
49451;BME280;35336;48.400;10.886;2024-01-27T00:16:42;97834.00;;;2.08;87.75
49451;BME280;35336;48.400;10.886;2024-01-27T00:16:57;97837.59;;;2.07;87.98
49451;BME280;35336;48.400;10.886;2024-01-27T00:17:12;97836.00;;;2.04;88.02
49451;BME280;35336;48.400;10.886;2024-01-27T00:17:28;97834.22;;;2.05;88.24
49451;BME280;35336;48.400;10.886;2024-01-27T00:17:44;97846.53;;;2.04;88.13
49451;BME280;35336;48.400;10.886;2024-01-27T00:17:59;97836.09;;;2.03;88.31
49451;BME280;35336;48.400;10.886;2024-01-27T00:18:17;97836.31;;;2.00;88.02
49451;BME280;35336;48.400;10.886;2024-01-27T00:18:35;97839.91;;;1.99;87.95
49451;BME280;35336;48.400;10.886;2024-01-27T00:18:51;97840.97;;;1.96;87.91
49451;BME280;35336;48.400;10.886;2024-01-27T00:19:06;97830.00;;;1.89;87.41
49451;BME280;35336;48.400;10.886;2024-01-27T00:19:21;97842.00;;;1.94;87.60
49451;BME280;35336;48.400;10.886;2024-01-27T00:19:39;97834.19;;;1.92;87.67
49451;BME280;35336;48.400;10.886;2024-01-27T00:19:54;97842.00;;;1.94;88.02
49451;BME280;35336;48.400;10.886;2024-01-27T00:20:14;97840.31;;;1.93;87.72
49451;BME280;35336;48.400;10.886;2024-01-27T00:20:29;97843.78;;;1.93;87.80
49451;BME280;35336;48.400;10.886;2024-01-27T00:20:44;97845.59;;;1.93;87.87
49451;BME280;35336;48.400;10.886;2024-01-27T00:21:00;97836.63;;;1.95;87.86
49451;BME280;35336;48.400;10.886;2024-01-27T00:21:15;97844.66;;;1.94;87.43
49451;BME280;35336;48.400;10.886;2024-01-27T00:21:30;97849.97;;;1.92;87.69
49451;BME280;35336;48.400;10.886;2024-01-27T00:21:47;97842.22;;;1.90;87.60
49451;BME280;35336;48.400;10.886;2024-01-27T00:22:03;97848.41;;;1.89;87.27
49451;BME280;35336;48.400;10.886;2024-01-27T00:22:18;97818.13;;;1.71;87.54
49451;BME280;35336;48.400;10.886;2024-01-27T00:22:33;97831.69;;;1.78;87.32
49451;BME280;35336;48.400;10.886;2024-01-27T00:22:49;97849.47;;;1.87;87.54
49451;BME280;35336;48.400;10.886;2024-01-27T00:23:06;97833.38;;;1.79;87.63
49451;BME280;35336;48.400;10.886;2024-01-27T00:23:22;97849.59;;;1.85;87.36
49451;BME280;35336;48.400;10.886;2024-01-27T00:23:37;97827.06;;;1.68;87.38
49451;BME280;35336;48.400;10.886;2024-01-27T00:23:54;97841.88;;;1.82;87.26
49451;BME280;35336;48.400;10.886;2024-01-27T00:24:10;97851.47;;;1.83;87.75
49451;BME280;35336;48.400;10.886;2024-01-27T00:24:27;97842.81;;;1.81;87.48
49451;BME280;35336;48.400;10.886;2024-01-27T00:24:45;97821.81;;;1.68;87.64
49451;BME280;35336;48.400;10.886;2024-01-27T00:25:02;97846.41;;;1.80;87.91
49451;BME280;35336;48.400;10.886;2024-01-27T00:25:20;97829.78;;;1.67;87.84
49451;BME280;35336;48.400;10.886;2024-01-27T00:25:35;97844.81;;;1.78;88.04
49451;BME280;35336;48.400;10.886;2024-01-27T00:25:51;97828.31;;;1.63;88.15
49451;BME280;35336;48.400;10.886;2024-01-27T00:26:08;97852.81;;;1.76;88.30
49451;BME280;35336;48.400;10.886;2024-01-27T00:26:26;97842.84;;;1.68;88.32
49451;BME280;35336;48.400;10.886;2024-01-27T00:26:42;97855.56;;;1.74;88.27
49451;BME280;35336;48.400;10.886;2024-01-27T00:26:58;97851.25;;;1.73;88.73
49451;BME280;35336;48.400;10.886;2024-01-27T00:27:13;97850.31;;;1.74;88.99
49451;BME280;35336;48.400;10.886;2024-01-27T00:27:30;97849.69;;;1.71;88.60
49451;BME280;35336;48.400;10.886;2024-01-27T00:27:48;97855.66;;;1.73;88.83
49451;BME280;35336;48.400;10.886;2024-01-27T00:28:03;97842.72;;;1.70;89.36
49451;BME280;35336;48.400;10.886;2024-01-27T00:28:19;97846.81;;;1.74;89.63
49451;BME280;35336;48.400;10.886;2024-01-27T00:28:34;97836.72;;;1.68;89.51
49451;BME280;35336;48.400;10.886;2024-01-27T00:28:49;97857.25;;;1.76;90.00
49451;BME280;35336;48.400;10.886;2024-01-27T00:29:04;97859.88;;;1.76;90.03
49451;BME280;35336;48.400;10.886;2024-01-27T00:29:20;97858.09;;;1.76;90.15
49451;BME280;35336;48.400;10.886;2024-01-27T00:29:35;97844.94;;;1.76;90.02
49451;BME280;35336;48.400;10.886;2024-01-27T00:29:51;97855.47;;;1.76;89.77
49451;BME280;35336;48.400;10.886;2024-01-27T00:30:09;97854.53;;;1.77;89.96
49451;BME280;35336;48.400;10.886;2024-01-27T00:30:27;97851.03;;;1.77;89.89
49451;BME280;35336;48.400;10.886;2024-01-27T00:30:42;97855.47;;;1.76;89.74
49451;BME280;35336;48.400;10.886;2024-01-27T00:30:58;97842.72;;;1.70;89.88
49451;BME280;35336;48.400;10.886;2024-01-27T00:31:13;97848.50;;;1.75;90.24
49451;BME280;35336;48.400;10.886;2024-01-27T00:31:28;97854.41;;;1.79;90.15
49451;BME280;35336;48.400;10.886;2024-01-27T00:31:43;97854.28;;;1.80;89.96
49451;BME280;35336;48.400;10.886;2024-01-27T00:31:59;97845.88;;;1.75;89.63
49451;BME280;35336;48.400;10.886;2024-01-27T00:32:16;97845.06;;;1.74;90.11
49451;BME280;35336;48.400;10.886;2024-01-27T00:32:32;97863.88;;;1.81;89.91
49451;BME280;35336;48.400;10.886;2024-01-27T00:32:47;97862.81;;;1.84;89.83
49451;BME280;35336;48.400;10.886;2024-01-27T00:33:02;97839.88;;;1.73;90.16
49451;BME280;35336;48.400;10.886;2024-01-27T00:33:18;97857.34;;;1.87;89.98
49451;BME280;35336;48.400;10.886;2024-01-27T00:33:33;97859.88;;;1.88;90.37
49451;BME280;35336;48.400;10.886;2024-01-27T00:33:48;97867.56;;;1.92;90.33
49451;BME280;35336;48.400;10.886;2024-01-27T00:34:03;97841.13;;;1.80;90.30
49451;BME280;35336;48.400;10.886;2024-01-27T00:34:19;97857.78;;;1.94;90.06
49451;BME280;35336;48.400;10.886;2024-01-27T00:34:34;97841.25;;;1.79;89.76
49451;BME280;35336;48.400;10.886;2024-01-27T00:34:49;97839.38;;;1.81;89.46
49451;BME280;35336;48.400;10.886;2024-01-27T00:35:07;97861.06;;;1.97;89.59
49451;BME280;35336;48.400;10.886;2024-01-27T00:35:22;97871.66;;;1.96;89.64
49451;BME280;35336;48.400;10.886;2024-01-27T00:35:37;97859.44;;;1.95;89.45
49451;BME280;35336;48.400;10.886;2024-01-27T00:35:55;97868.09;;;1.97;89.51
49451;BME280;35336;48.400;10.886;2024-01-27T00:36:13;97870.72;;;1.97;89.25
49451;BME280;35336;48.400;10.886;2024-01-27T00:36:28;97850.53;;;1.84;89.39
49451;BME280;35336;48.400;10.886;2024-01-27T00:36:43;97844.63;;;1.81;89.46
49451;BME280;35336;48.400;10.886;2024-01-27T00:36:59;97868.41;;;1.92;89.26
49451;BME280;35336;48.400;10.886;2024-01-27T00:37:16;97859.16;;;1.86;89.29
49451;BME280;35336;48.400;10.886;2024-01-27T00:37:32;97854.84;;;1.85;89.49
49451;BME280;35336;48.400;10.886;2024-01-27T00:37:47;97871.66;;;1.96;89.19
49451;BME280;35336;48.400;10.886;2024-01-27T00:38:03;97871.66;;;1.96;89.29
49451;BME280;35336;48.400;10.886;2024-01-27T00:38:18;97866.63;;;1.93;88.95
49451;BME280;35336;48.400;10.886;2024-01-27T00:38:33;97869.34;;;1.91;89.51
49451;BME280;35336;48.400;10.886;2024-01-27T00:38:49;97842.31;;;1.76;89.46
49451;BME280;35336;48.400;10.886;2024-01-27T00:39:04;97860.31;;;1.82;89.43
49451;BME280;35336;48.400;10.886;2024-01-27T00:39:19;97853.16;;;1.84;89.51
49451;BME280;35336;48.400;10.886;2024-01-27T00:39:35;97871.16;;;1.90;89.74
49451;BME280;35336;48.400;10.886;2024-01-27T00:39:50;97866.81;;;1.89;90.18
49451;BME280;35336;48.400;10.886;2024-01-27T00:40:08;97861.56;;;1.89;90.14
49451;BME280;35336;48.400;10.886;2024-01-27T00:40:26;97862.50;;;1.88;89.96
49451;BME280;35336;48.400;10.886;2024-01-27T00:40:41;97865.13;;;1.88;89.86
49451;BME280;35336;48.400;10.886;2024-01-27T00:40:56;97867.69;;;1.90;89.98
49451;BME280;35336;48.400;10.886;2024-01-27T00:41:18;97859.47;;;1.82;89.81
49451;BME280;35336;48.400;10.886;2024-01-27T00:41:33;97865.25;;;1.87;90.39
49451;BME280;35336;48.400;10.886;2024-01-27T00:41:48;97872.31;;;1.86;90.19
49451;BME280;35336;48.400;10.886;2024-01-27T00:42:04;97868.00;;;1.85;89.94
49451;BME280;35336;48.400;10.886;2024-01-27T00:42:19;97857.66;;;1.82;90.26
49451;BME280;35336;48.400;10.886;2024-01-27T00:42:34;97859.47;;;1.82;89.91
49451;BME280;35336;48.400;10.886;2024-01-27T00:42:49;97856.22;;;1.78;90.04
49451;BME280;35336;48.400;10.886;2024-01-27T00:43:05;97864.63;;;1.83;89.82
49451;BME280;35336;48.400;10.886;2024-01-27T00:43:20;97845.34;;;1.70;89.91
49451;BME280;35336;48.400;10.886;2024-01-27T00:43:35;97868.00;;;1.85;89.77
49451;BME280;35336;48.400;10.886;2024-01-27T00:43:51;97864.50;;;1.85;89.80
49451;BME280;35336;48.400;10.886;2024-01-27T00:44:06;97862.81;;;1.84;89.53
49451;BME280;35336;48.400;10.886;2024-01-27T00:44:21;97843.25;;;1.75;89.62
49451;BME280;35336;48.400;10.886;2024-01-27T00:44:36;97862.81;;;1.84;89.50
49451;BME280;35336;48.400;10.886;2024-01-27T00:44:52;97859.25;;;1.85;89.55
49451;BME280;35336;48.400;10.886;2024-01-27T00:45:07;97840.09;;;1.70;89.48
49451;BME280;35336;48.400;10.886;2024-01-27T00:45:23;97862.19;;;1.80;89.41
49451;BME280;35336;48.400;10.886;2024-01-27T00:45:38;97862.41;;;1.77;89.57
49451;BME280;35336;48.400;10.886;2024-01-27T00:45:53;97858.59;;;1.81;89.90
49451;BME280;35336;48.400;10.886;2024-01-27T00:46:13;97856.09;;;1.80;89.98
49451;BME280;35336;48.400;10.886;2024-01-27T00:46:28;97843.47;;;1.72;89.76
49451;BME280;35336;48.400;10.886;2024-01-27T00:46:46;97864.63;;;1.83;89.65
49451;BME280;35336;48.400;10.886;2024-01-27T00:47:02;97869.75;;;1.85;89.85
49451;BME280;35336;48.400;10.886;2024-01-27T00:47:18;97859.34;;;1.83;89.66
49451;BME280;35336;48.400;10.886;2024-01-27T00:47:33;97858.41;;;1.84;89.55
49451;BME280;35336;48.400;10.886;2024-01-27T00:47:51;97857.47;;;1.85;89.82
49451;BME280;35336;48.400;10.886;2024-01-27T00:48:06;97866.81;;;1.89;89.92
49451;BME280;35336;48.400;10.886;2024-01-27T00:48:22;97862.50;;;1.88;89.50
49451;BME280;35336;48.400;10.886;2024-01-27T00:48:37;97859.88;;;1.88;89.38
49451;BME280;35336;48.400;10.886;2024-01-27T00:48:52;97864.94;;;1.92;89.44
49451;BME280;35336;48.400;10.886;2024-01-27T00:49:07;97863.25;;;1.90;89.08
49451;BME280;35336;48.400;10.886;2024-01-27T00:49:23;97856.53;;;1.86;88.91
49451;BME280;35336;48.400;10.886;2024-01-27T00:49:40;97839.69;;;1.76;88.90
49451;BME280;35336;48.400;10.886;2024-01-27T00:49:55;97862.50;;;1.88;89.23
49451;BME280;35336;48.400;10.886;2024-01-27T00:50:11;97861.56;;;1.89;89.16
49451;BME280;35336;48.400;10.886;2024-01-27T00:50:26;97837.03;;;1.76;89.20
49451;BME280;35336;48.400;10.886;2024-01-27T00:50:41;97865.88;;;1.90;89.16
49451;BME280;35336;48.400;10.886;2024-01-27T00:50:58;97858.75;;;1.93;89.10
49451;BME280;35336;48.400;10.886;2024-01-27T00:51:16;97861.38;;;1.93;88.91
49451;BME280;35336;48.400;10.886;2024-01-27T00:51:32;97853.47;;;1.93;88.72
49451;BME280;35336;48.400;10.886;2024-01-27T00:51:47;97858.81;;;1.91;88.84
49451;BME280;35336;48.400;10.886;2024-01-27T00:52:05;97854.31;;;1.93;88.98
49451;BME280;35336;48.400;10.886;2024-01-27T00:52:20;97851.91;;;1.90;88.74
49451;BME280;35336;48.400;10.886;2024-01-27T00:52:38;97858.50;;;1.96;88.79
49451;BME280;35336;48.400;10.886;2024-01-27T00:52:53;97866.09;;;2.00;89.28
49451;BME280;35336;48.400;10.886;2024-01-27T00:53:08;97862.00;;;1.96;89.49
49451;BME280;35336;48.400;10.886;2024-01-27T00:53:24;97867.25;;;1.96;89.01
49451;BME280;35336;48.400;10.886;2024-01-27T00:53:40;97872.94;;;2.03;89.10
49451;BME280;35336;48.400;10.886;2024-01-27T00:53:55;97858.31;;;1.99;88.64
49451;BME280;35336;48.400;10.886;2024-01-27T00:54:10;97868.53;;;2.03;88.58
49451;BME280;35336;48.400;10.886;2024-01-27T00:54:26;97855.06;;;1.95;88.31
49451;BME280;35336;48.400;10.886;2024-01-27T00:54:41;97841.47;;;1.88;88.44
49451;BME280;35336;48.400;10.886;2024-01-27T00:54:56;97860.75;;;2.02;88.56
49451;BME280;35336;48.400;10.886;2024-01-27T00:55:11;97867.66;;;2.03;88.34
49451;BME280;35336;48.400;10.886;2024-01-27T00:55:27;97867.91;;;2.00;88.80
49451;BME280;35336;48.400;10.886;2024-01-27T00:55:42;97869.47;;;2.02;88.56
49451;BME280;35336;48.400;10.886;2024-01-27T00:55:57;97863.38;;;2.02;88.49
49451;BME280;35336;48.400;10.886;2024-01-27T00:56:12;97860.94;;;1.99;88.78
49451;BME280;35336;48.400;10.886;2024-01-27T00:56:28;97848.53;;;1.88;88.30
49451;BME280;35336;48.400;10.886;2024-01-27T00:56:43;97855.25;;;1.92;88.40
49451;BME280;35336;48.400;10.886;2024-01-27T00:56:58;97875.69;;;2.01;88.48
49451;BME280;35336;48.400;10.886;2024-01-27T00:57:13;97874.84;;;2.01;88.53
49451;BME280;35336;48.400;10.886;2024-01-27T00:57:29;97867.16;;;1.98;88.30
49451;BME280;35336;48.400;10.886;2024-01-27T00:57:44;97873.28;;;1.98;88.30
49451;BME280;35336;48.400;10.886;2024-01-27T00:57:59;97868.31;;;1.94;88.52
49451;BME280;35336;48.400;10.886;2024-01-27T00:58:15;97868.41;;;1.92;88.70
49451;BME280;35336;48.400;10.886;2024-01-27T00:58:30;97869.78;;;1.98;88.66
49451;BME280;35336;48.400;10.886;2024-01-27T00:58:45;97872.41;;;1.98;88.66
49451;BME280;35336;48.400;10.886;2024-01-27T00:59:00;97880.19;;;1.99;88.80
49451;BME280;35336;48.400;10.886;2024-01-27T00:59:16;97858.31;;;1.86;88.14
49451;BME280;35336;48.400;10.886;2024-01-27T00:59:31;97876.84;;;1.97;88.47
49451;BME280;35336;48.400;10.886;2024-01-27T00:59:46;97878.41;;;2.00;88.73
49451;BME280;35336;48.400;10.886;2024-01-27T01:00:01;97869.78;;;1.98;88.92
49451;BME280;35336;48.400;10.886;2024-01-27T01:00:19;97871.66;;;1.96;88.41
49451;BME280;35336;48.400;10.886;2024-01-27T01:00:35;97876.72;;;1.99;88.51
49451;BME280;35336;48.400;10.886;2024-01-27T01:00:50;97874.00;;;2.00;88.41
49451;BME280;35336;48.400;10.886;2024-01-27T01:01:05;97880.09;;;2.01;88.70
49451;BME280;35336;48.400;10.886;2024-01-27T01:01:20;97871.47;;;1.99;88.69
49451;BME280;35336;48.400;10.886;2024-01-27T01:01:36;97874.63;;;2.04;88.71
49451;BME280;35336;48.400;10.886;2024-01-27T01:01:51;97868.94;;;1.97;88.41
49451;BME280;35336;48.400;10.886;2024-01-27T01:02:06;97879.78;;;2.05;88.68
49451;BME280;35336;48.400;10.886;2024-01-27T01:02:22;97879.06;;;2.03;88.69
49451;BME280;35336;48.400;10.886;2024-01-27T01:02:37;97859.25;;;1.98;88.59
49451;BME280;35336;48.400;10.886;2024-01-27T01:02:53;97877.16;;;2.05;88.64
49451;BME280;35336;48.400;10.886;2024-01-27T01:03:10;97876.31;;;2.05;88.12
49451;BME280;35336;48.400;10.886;2024-01-27T01:03:25;97883.25;;;2.06;88.27
49451;BME280;35336;48.400;10.886;2024-01-27T01:03:41;97881.56;;;2.05;88.20
49451;BME280;35336;48.400;10.886;2024-01-27T01:03:58;97882.50;;;2.04;88.40
49451;BME280;35336;48.400;10.886;2024-01-27T01:04:16;97884.19;;;2.05;88.30
49451;BME280;35336;48.400;10.886;2024-01-27T01:04:34;97866.81;;;1.89;88.79
49451;BME280;35336;48.400;10.886;2024-01-27T01:04:52;97864.00;;;1.93;88.82
49451;BME280;35336;48.400;10.886;2024-01-27T01:05:07;97882.50;;;2.04;88.61
49451;BME280;35336;48.400;10.886;2024-01-27T01:05:22;97882.50;;;2.04;88.90
49451;BME280;35336;48.400;10.886;2024-01-27T01:05:38;97858.19;;;1.87;88.50
49451;BME280;35336;48.400;10.886;2024-01-27T01:05:55;97878.94;;;2.05;88.96
49451;BME280;35336;48.400;10.886;2024-01-27T01:06:10;97875.69;;;2.01;88.79
49451;BME280;35336;48.400;10.886;2024-01-27T01:06:26;97869.59;;;2.01;88.83
49451;BME280;35336;48.400;10.886;2024-01-27T01:06:41;97868.72;;;2.00;88.87
49451;BME280;35336;48.400;10.886;2024-01-27T01:06:56;97891.97;;;2.06;88.88
49451;BME280;35336;48.400;10.886;2024-01-27T01:07:12;97882.44;;;2.05;89.29
49451;BME280;35336;48.400;10.886;2024-01-27T01:07:30;97875.56;;;2.03;89.13
49451;BME280;35336;48.400;10.886;2024-01-27T01:07:45;97884.19;;;2.05;89.36
49451;BME280;35336;48.400;10.886;2024-01-27T01:08:00;97879.06;;;2.03;89.54
49451;BME280;35336;48.400;10.886;2024-01-27T01:08:15;97874.22;;;1.97;89.63
49451;BME280;35336;48.400;10.886;2024-01-27T01:08:31;97887.78;;;2.04;89.40
49451;BME280;35336;48.400;10.886;2024-01-27T01:08:47;97884.31;;;2.03;89.45
49451;BME280;35336;48.400;10.886;2024-01-27T01:09:03;97882.63;;;2.02;88.87
49451;BME280;35336;48.400;10.886;2024-01-27T01:09:18;97881.78;;;2.02;89.06
49451;BME280;35336;48.400;10.886;2024-01-27T01:09:33;97890.63;;;2.01;88.85
49451;BME280;35336;48.400;10.886;2024-01-27T01:09:49;97887.88;;;2.02;88.95
49451;BME280;35336;48.400;10.886;2024-01-27T01:10:04;97865.06;;;1.90;88.77
49451;BME280;35336;48.400;10.886;2024-01-27T01:10:20;97884.50;;;2.00;88.77
49451;BME280;35336;48.400;10.886;2024-01-27T01:10:35;97884.50;;;2.00;88.70
49451;BME280;35336;48.400;10.886;2024-01-27T01:10:50;97884.44;;;2.02;89.00
49451;BME280;35336;48.400;10.886;2024-01-27T01:11:08;97882.63;;;2.02;88.66
49451;BME280;35336;48.400;10.886;2024-01-27T01:11:23;97881.69;;;2.03;88.91
49451;BME280;35336;48.400;10.886;2024-01-27T01:11:39;97879.88;;;2.04;88.69
49451;BME280;35336;48.400;10.886;2024-01-27T01:11:54;97864.94;;;1.92;88.76
49451;BME280;35336;48.400;10.886;2024-01-27T01:12:09;97880.75;;;2.04;88.76
49451;BME280;35336;48.400;10.886;2024-01-27T01:12:25;97865.78;;;1.92;88.67
49451;BME280;35336;48.400;10.886;2024-01-27T01:12:40;97882.31;;;2.07;88.94
49451;BME280;35336;48.400;10.886;2024-01-27T01:12:55;97886.72;;;2.06;88.84
49451;BME280;35336;48.400;10.886;2024-01-27T01:13:10;97886.63;;;2.08;88.89
49451;BME280;35336;48.400;10.886;2024-01-27T01:13:26;97878.19;;;2.03;88.65
49451;BME280;35336;48.400;10.886;2024-01-27T01:13:48;97885.88;;;2.06;88.37
49451;BME280;35336;48.400;10.886;2024-01-27T01:14:04;97884.94;;;2.07;88.61
49451;BME280;35336;48.400;10.886;2024-01-27T01:14:22;97889.34;;;2.06;88.76
49451;BME280;35336;48.400;10.886;2024-01-27T01:14:37;97886.63;;;2.08;88.60
49451;BME280;35336;48.400;10.886;2024-01-27T01:14:52;97884.44;;;2.02;88.27
49451;BME280;35336;48.400;10.886;2024-01-27T01:15:08;97871.47;;;1.99;88.26
49451;BME280;35336;48.400;10.886;2024-01-27T01:15:23;97882.75;;;2.01;88.74
49451;BME280;35336;48.400;10.886;2024-01-27T01:15:38;97858.09;;;1.89;88.61
49451;BME280;35336;48.400;10.886;2024-01-27T01:15:54;97881.88;;;2.00;88.52
49451;BME280;35336;48.400;10.886;2024-01-27T01:16:09;97866.41;;;1.96;88.36
49451;BME280;35336;48.400;10.886;2024-01-27T01:16:24;97886.00;;;2.04;88.54
49451;BME280;35336;48.400;10.886;2024-01-27T01:16:40;97882.50;;;2.04;88.15
49451;BME280;35336;48.400;10.886;2024-01-27T01:16:55;97885.25;;;2.02;88.34
49451;BME280;35336;48.400;10.886;2024-01-27T01:17:13;97887.88;;;2.02;88.31
49451;BME280;35336;48.400;10.886;2024-01-27T01:17:28;97886.19;;;2.01;88.35
49451;BME280;35336;48.400;10.886;2024-01-27T01:17:43;97880.09;;;2.01;88.10
49451;BME280;35336;48.400;10.886;2024-01-27T01:17:59;97882.63;;;2.02;88.76
49451;BME280;35336;48.400;10.886;2024-01-27T01:18:14;97851.66;;;1.80;88.57
49451;BME280;35336;48.400;10.886;2024-01-27T01:18:29;97883.69;;;2.00;88.24
49451;BME280;35336;48.400;10.886;2024-01-27T01:18:45;97892.09;;;2.05;88.45
49451;BME280;35336;48.400;10.886;2024-01-27T01:19:02;97857.47;;;1.85;88.38
49451;BME280;35336;48.400;10.886;2024-01-27T01:19:17;97893.03;;;2.04;87.98
49451;BME280;35336;48.400;10.886;2024-01-27T01:19:35;97881.06;;;2.00;88.09
49451;BME280;35336;48.400;10.886;2024-01-27T01:19:51;97879.88;;;2.04;88.22
49451;BME280;35336;48.400;10.886;2024-01-27T01:20:09;97891.47;;;2.01;87.72
49451;BME280;35336;48.400;10.886;2024-01-27T01:20:25;97864.19;;;1.89;88.28
49451;BME280;35336;48.400;10.886;2024-01-27T01:20:40;97878.53;;;1.98;88.29
49451;BME280;35336;48.400;10.886;2024-01-27T01:20:57;97885.38;;;2.01;88.05
49451;BME280;35336;48.400;10.886;2024-01-27T01:21:15;97887.25;;;1.99;88.21
49451;BME280;35336;48.400;10.886;2024-01-27T01:21:34;97879.66;;;1.94;88.33
49451;BME280;35336;48.400;10.886;2024-01-27T01:21:49;97886.31;;;2.00;88.20
49451;BME280;35336;48.400;10.886;2024-01-27T01:22:04;97893.34;;;1.99;88.38
49451;BME280;35336;48.400;10.886;2024-01-27T01:22:20;97868.72;;;1.87;88.61
49451;BME280;35336;48.400;10.886;2024-01-27T01:22:35;97890.63;;;2.01;88.64
49451;BME280;35336;48.400;10.886;2024-01-27T01:22:50;97884.63;;;1.99;89.01
49451;BME280;35336;48.400;10.886;2024-01-27T01:23:06;97891.69;;;1.98;88.95
49451;BME280;35336;48.400;10.886;2024-01-27T01:23:21;97855.25;;;1.79;88.86
49451;BME280;35336;48.400;10.886;2024-01-27T01:23:36;97875.56;;;1.90;88.46